sensor_id;sensor_type;location;lat;lon;timestamp;P1;durP1;ratioP1;P2;durP2;ratioP2
33930;SDS011;20215;53.130;6.408;2022-08-19T00:00:25;1.33;;;0.60;;
33930;SDS011;20215;53.130;6.408;2022-08-19T00:02:52;0.70;;;0.70;;
33930;SDS011;20215;53.130;6.408;2022-08-19T00:05:19;0.70;;;0.70;;
33930;SDS011;20215;53.130;6.408;2022-08-19T00:07:45;0.55;;;0.50;;
33930;SDS011;20215;53.130;6.408;2022-08-19T00:10:11;0.50;;;0.40;;
33930;SDS011;20215;53.130;6.408;2022-08-19T00:12:39;0.50;;;0.50;;
33930;SDS011;20215;53.130;6.408;2022-08-19T00:15:08;2.90;;;0.57;;
33930;SDS011;20215;53.130;6.408;2022-08-19T00:17:39;0.55;;;0.50;;
33930;SDS011;20215;53.130;6.408;2022-08-19T00:20:07;0.38;;;0.35;;
33930;SDS011;20215;53.130;6.408;2022-08-19T00:22:35;0.50;;;0.50;;
33930;SDS011;20215;53.130;6.408;2022-08-19T00:25:01;1.17;;;0.93;;
33930;SDS011;20215;53.130;6.408;2022-08-19T00:27:27;0.60;;;0.60;;
33930;SDS011;20215;53.130;6.408;2022-08-19T00:29:53;1.95;;;0.60;;
33930;SDS011;20215;53.130;6.408;2022-08-19T00:32:19;1.23;;;0.68;;
33930;SDS011;20215;53.130;6.408;2022-08-19T00:34:45;0.65;;;0.65;;
33930;SDS011;20215;53.130;6.408;2022-08-19T00:37:11;0.32;;;0.32;;
33930;SDS011;20215;53.130;6.408;2022-08-19T00:39:38;0.52;;;0.52;;
33930;SDS011;20215;53.130;6.408;2022-08-19T00:42:04;0.55;;;0.55;;
33930;SDS011;20215;53.130;6.408;2022-08-19T00:44:31;0.50;;;0.50;;
33930;SDS011;20215;53.130;6.408;2022-08-19T00:46:57;1.05;;;0.50;;
33930;SDS011;20215;53.130;6.408;2022-08-19T00:51:59;1.23;;;0.60;;
33930;SDS011;20215;53.130;6.408;2022-08-19T00:54:29;1.15;;;0.80;;
33930;SDS011;20215;53.130;6.408;2022-08-19T00:56:56;0.50;;;0.50;;
33930;SDS011;20215;53.130;6.408;2022-08-19T00:59:22;0.60;;;0.52;;
33930;SDS011;20215;53.130;6.408;2022-08-19T01:01:48;1.13;;;0.68;;
33930;SDS011;20215;53.130;6.408;2022-08-19T01:04:14;0.50;;;0.50;;
33930;SDS011;20215;53.130;6.408;2022-08-19T01:06:40;0.60;;;0.60;;
33930;SDS011;20215;53.130;6.408;2022-08-19T01:09:08;0.70;;;0.50;;
33930;SDS011;20215;53.130;6.408;2022-08-19T01:11:35;0.93;;;0.75;;
33930;SDS011;20215;53.130;6.408;2022-08-19T01:14:04;0.43;;;0.43;;
33930;SDS011;20215;53.130;6.408;2022-08-19T01:16:31;0.90;;;0.52;;
33930;SDS011;20215;53.130;6.408;2022-08-19T01:18:59;0.55;;;0.47;;
33930;SDS011;20215;53.130;6.408;2022-08-19T01:21:30;0.52;;;0.52;;
33930;SDS011;20215;53.130;6.408;2022-08-19T01:24:02;0.63;;;0.47;;
33930;SDS011;20215;53.130;6.408;2022-08-19T01:26:28;2.33;;;0.70;;
33930;SDS011;20215;53.130;6.408;2022-08-19T01:28:57;0.60;;;0.60;;
33930;SDS011;20215;53.130;6.408;2022-08-19T01:31:25;0.50;;;0.50;;
33930;SDS011;20215;53.130;6.408;2022-08-19T01:33:55;0.63;;;0.63;;
33930;SDS011;20215;53.130;6.408;2022-08-19T01:36:30;0.50;;;0.45;;
33930;SDS011;20215;53.130;6.408;2022-08-19T01:39:03;0.82;;;0.55;;
33930;SDS011;20215;53.130;6.408;2022-08-19T01:41:30;0.45;;;0.45;;
33930;SDS011;20215;53.130;6.408;2022-08-19T01:43:56;0.73;;;0.57;;
33930;SDS011;20215;53.130;6.408;2022-08-19T01:46:22;0.40;;;0.40;;
33930;SDS011;20215;53.130;6.408;2022-08-19T01:48:47;0.50;;;0.50;;
33930;SDS011;20215;53.130;6.408;2022-08-19T01:51:13;0.63;;;0.50;;
33930;SDS011;20215;53.130;6.408;2022-08-19T01:53:39;0.65;;;0.55;;
33930;SDS011;20215;53.130;6.408;2022-08-19T01:56:05;0.40;;;0.40;;
33930;SDS011;20215;53.130;6.408;2022-08-19T01:58:32;0.80;;;0.80;;
33930;SDS011;20215;53.130;6.408;2022-08-19T02:01:01;0.40;;;0.40;;
33930;SDS011;20215;53.130;6.408;2022-08-19T02:03:28;0.50;;;0.50;;
33930;SDS011;20215;53.130;6.408;2022-08-19T02:05:57;0.88;;;0.65;;
33930;SDS011;20215;53.130;6.408;2022-08-19T02:08:25;0.40;;;0.40;;
33930;SDS011;20215;53.130;6.408;2022-08-19T02:10:52;0.45;;;0.45;;
33930;SDS011;20215;53.130;6.408;2022-08-19T02:13:18;0.70;;;0.70;;
33930;SDS011;20215;53.130;6.408;2022-08-19T02:15:44;0.55;;;0.50;;
33930;SDS011;20215;53.130;6.408;2022-08-19T02:18:10;0.65;;;0.55;;
33930;SDS011;20215;53.130;6.408;2022-08-19T02:20:36;0.50;;;0.50;;
33930;SDS011;20215;53.130;6.408;2022-08-19T02:23:03;0.45;;;0.45;;
33930;SDS011;20215;53.130;6.408;2022-08-19T02:25:28;0.45;;;0.40;;
33930;SDS011;20215;53.130;6.408;2022-08-19T02:27:54;0.68;;;0.57;;
33930;SDS011;20215;53.130;6.408;2022-08-19T02:30:20;0.68;;;0.68;;
33930;SDS011;20215;53.130;6.408;2022-08-19T02:32:46;0.73;;;0.73;;
33930;SDS011;20215;53.130;6.408;2022-08-19T02:35:12;0.82;;;0.50;;
33930;SDS011;20215;53.130;6.408;2022-08-19T02:37:39;0.63;;;0.63;;
33930;SDS011;20215;53.130;6.408;2022-08-19T02:40:24;1.02;;;0.70;;
33930;SDS011;20215;53.130;6.408;2022-08-19T02:42:50;0.82;;;0.73;;
33930;SDS011;20215;53.130;6.408;2022-08-19T02:45:16;0.50;;;0.50;;
33930;SDS011;20215;53.130;6.408;2022-08-19T02:47:42;0.38;;;0.38;;
33930;SDS011;20215;53.130;6.408;2022-08-19T02:50:07;0.50;;;0.50;;
33930;SDS011;20215;53.130;6.408;2022-08-19T02:52:33;1.10;;;0.75;;
33930;SDS011;20215;53.130;6.408;2022-08-19T02:54:59;0.52;;;0.52;;
33930;SDS011;20215;53.130;6.408;2022-08-19T02:57:25;0.70;;;0.70;;
33930;SDS011;20215;53.130;6.408;2022-08-19T02:59:51;0.55;;;0.55;;
33930;SDS011;20215;53.130;6.408;2022-08-19T03:02:17;0.60;;;0.60;;
33930;SDS011;20215;53.130;6.408;2022-08-19T03:04:43;0.40;;;0.40;;
33930;SDS011;20215;53.130;6.408;2022-08-19T03:07:08;1.75;;;0.57;;
33930;SDS011;20215;53.130;6.408;2022-08-19T03:09:37;0.52;;;0.52;;
33930;SDS011;20215;53.130;6.408;2022-08-19T03:12:03;0.60;;;0.60;;
33930;SDS011;20215;53.130;6.408;2022-08-19T03:14:32;0.57;;;0.57;;
33930;SDS011;20215;53.130;6.408;2022-08-19T03:16:58;0.50;;;0.50;;
33930;SDS011;20215;53.130;6.408;2022-08-19T03:19:24;1.02;;;0.80;;
33930;SDS011;20215;53.130;6.408;2022-08-19T03:21:50;0.60;;;0.60;;
33930;SDS011;20215;53.130;6.408;2022-08-19T03:24:17;0.50;;;0.50;;
33930;SDS011;20215;53.130;6.408;2022-08-19T03:26:45;0.43;;;0.43;;
33930;SDS011;20215;53.130;6.408;2022-08-19T03:29:23;0.50;;;0.50;;
33930;SDS011;20215;53.130;6.408;2022-08-19T03:31:50;0.60;;;0.60;;
33930;SDS011;20215;53.130;6.408;2022-08-19T03:34:28;0.85;;;0.55;;
33930;SDS011;20215;53.130;6.408;2022-08-19T03:36:55;2.00;;;0.40;;
33930;SDS011;20215;53.130;6.408;2022-08-19T03:39:22;0.40;;;0.40;;
33930;SDS011;20215;53.130;6.408;2022-08-19T03:41:50;0.50;;;0.50;;
33930;SDS011;20215;53.130;6.408;2022-08-19T03:44:18;0.82;;;0.60;;
33930;SDS011;20215;53.130;6.408;2022-08-19T03:46:46;0.55;;;0.52;;
33930;SDS011;20215;53.130;6.408;2022-08-19T03:49:14;0.35;;;0.35;;
33930;SDS011;20215;53.130;6.408;2022-08-19T03:51:41;0.40;;;0.40;;
33930;SDS011;20215;53.130;6.408;2022-08-19T03:54:08;0.40;;;0.40;;
33930;SDS011;20215;53.130;6.408;2022-08-19T03:56:35;0.73;;;0.60;;
33930;SDS011;20215;53.130;6.408;2022-08-19T03:59:03;0.45;;;0.30;;
33930;SDS011;20215;53.130;6.408;2022-08-19T04:01:31;0.50;;;0.50;;
33930;SDS011;20215;53.130;6.408;2022-08-19T04:03:56;0.40;;;0.40;;
33930;SDS011;20215;53.130;6.408;2022-08-19T04:06:27;0.55;;;0.55;;
33930;SDS011;20215;53.130;6.408;2022-08-19T04:08:55;0.93;;;0.45;;
33930;SDS011;20215;53.130;6.408;2022-08-19T04:11:24;0.40;;;0.40;;
33930;SDS011;20215;53.130;6.408;2022-08-19T04:13:51;0.88;;;0.60;;
33930;SDS011;20215;53.130;6.408;2022-08-19T04:16:18;0.43;;;0.43;;
33930;SDS011;20215;53.130;6.408;2022-08-19T04:18:46;1.65;;;1.10;;
33930;SDS011;20215;53.130;6.408;2022-08-19T04:21:16;0.40;;;0.40;;
33930;SDS011;20215;53.130;6.408;2022-08-19T04:23:44;0.45;;;0.40;;
33930;SDS011;20215;53.130;6.408;2022-08-19T04:26:17;0.30;;;0.30;;
33930;SDS011;20215;53.130;6.408;2022-08-19T04:28:46;0.60;;;0.60;;
33930;SDS011;20215;53.130;6.408;2022-08-19T04:31:16;0.43;;;0.43;;
33930;SDS011;20215;53.130;6.408;2022-08-19T04:33:58;0.50;;;0.50;;
33930;SDS011;20215;53.130;6.408;2022-08-19T04:36:26;0.50;;;0.50;;
33930;SDS011;20215;53.130;6.408;2022-08-19T04:38:55;0.50;;;0.50;;
33930;SDS011;20215;53.130;6.408;2022-08-19T04:41:23;0.57;;;0.38;;
33930;SDS011;20215;53.130;6.408;2022-08-19T04:44:08;0.40;;;0.40;;
33930;SDS011;20215;53.130;6.408;2022-08-19T04:46:34;0.57;;;0.50;;
33930;SDS011;20215;53.130;6.408;2022-08-19T04:49:00;0.30;;;0.30;;
33930;SDS011;20215;53.130;6.408;2022-08-19T04:51:27;0.52;;;0.45;;
33930;SDS011;20215;53.130;6.408;2022-08-19T04:53:53;0.45;;;0.40;;
33930;SDS011;20215;53.130;6.408;2022-08-19T04:56:19;0.40;;;0.40;;
33930;SDS011;20215;53.130;6.408;2022-08-19T04:58:46;0.50;;;0.50;;
33930;SDS011;20215;53.130;6.408;2022-08-19T05:01:20;0.45;;;0.45;;
33930;SDS011;20215;53.130;6.408;2022-08-19T05:03:47;0.47;;;0.40;;
33930;SDS011;20215;53.130;6.408;2022-08-19T05:06:14;0.40;;;0.40;;
33930;SDS011;20215;53.130;6.408;2022-08-19T05:08:42;0.40;;;0.40;;
33930;SDS011;20215;53.130;6.408;2022-08-19T05:13:42;0.82;;;0.70;;
33930;SDS011;20215;53.130;6.408;2022-08-19T05:16:09;0.30;;;0.30;;
33930;SDS011;20215;53.130;6.408;2022-08-19T05:18:37;0.45;;;0.45;;
33930;SDS011;20215;53.130;6.408;2022-08-19T05:21:22;1.27;;;0.30;;
33930;SDS011;20215;53.130;6.408;2022-08-19T05:24:07;1.00;;;0.90;;
33930;SDS011;20215;53.130;6.408;2022-08-19T05:26:33;0.82;;;0.70;;
33930;SDS011;20215;53.130;6.408;2022-08-19T05:29:00;1.02;;;0.65;;
33930;SDS011;20215;53.130;6.408;2022-08-19T05:31:25;0.60;;;0.60;;
33930;SDS011;20215;53.130;6.408;2022-08-19T05:33:51;3.17;;;0.80;;
33930;SDS011;20215;53.130;6.408;2022-08-19T05:36:17;3.03;;;0.70;;
33930;SDS011;20215;53.130;6.408;2022-08-19T05:38:45;2.22;;;0.80;;
33930;SDS011;20215;53.130;6.408;2022-08-19T05:41:12;3.65;;;0.73;;
33930;SDS011;20215;53.130;6.408;2022-08-19T05:43:40;0.85;;;0.63;;
33930;SDS011;20215;53.130;6.408;2022-08-19T05:46:06;4.32;;;0.68;;
33930;SDS011;20215;53.130;6.408;2022-08-19T05:48:33;2.05;;;0.60;;
33930;SDS011;20215;53.130;6.408;2022-08-19T05:51:03;0.50;;;0.50;;
33930;SDS011;20215;53.130;6.408;2022-08-19T05:53:33;0.73;;;0.70;;
33930;SDS011;20215;53.130;6.408;2022-08-19T05:56:05;0.60;;;0.60;;
33930;SDS011;20215;53.130;6.408;2022-08-19T05:58:32;0.90;;;0.80;;
33930;SDS011;20215;53.130;6.408;2022-08-19T06:00:59;0.55;;;0.52;;
33930;SDS011;20215;53.130;6.408;2022-08-19T06:03:30;1.25;;;0.60;;
33930;SDS011;20215;53.130;6.408;2022-08-19T06:05:58;0.90;;;0.90;;
33930;SDS011;20215;53.130;6.408;2022-08-19T06:08:24;0.80;;;0.80;;
33930;SDS011;20215;53.130;6.408;2022-08-19T06:10:51;2.58;;;1.05;;
33930;SDS011;20215;53.130;6.408;2022-08-19T06:13:17;2.05;;;0.70;;
33930;SDS011;20215;53.130;6.408;2022-08-19T06:15:44;1.48;;;0.82;;
33930;SDS011;20215;53.130;6.408;2022-08-19T06:18:11;0.68;;;0.68;;
33930;SDS011;20215;53.130;6.408;2022-08-19T06:20:37;3.20;;;0.70;;
33930;SDS011;20215;53.130;6.408;2022-08-19T06:23:03;1.38;;;0.50;;
33930;SDS011;20215;53.130;6.408;2022-08-19T06:25:29;0.93;;;0.90;;
33930;SDS011;20215;53.130;6.408;2022-08-19T06:27:55;0.50;;;0.40;;
33930;SDS011;20215;53.130;6.408;2022-08-19T06:30:20;8.60;;;1.33;;
33930;SDS011;20215;53.130;6.408;2022-08-19T06:32:46;0.90;;;0.60;;
33930;SDS011;20215;53.130;6.408;2022-08-19T06:35:12;0.85;;;0.70;;
33930;SDS011;20215;53.130;6.408;2022-08-19T06:37:39;0.60;;;0.60;;
33930;SDS011;20215;53.130;6.408;2022-08-19T06:40:06;0.82;;;0.70;;
33930;SDS011;20215;53.130;6.408;2022-08-19T06:42:33;1.30;;;0.88;;
33930;SDS011;20215;53.130;6.408;2022-08-19T06:44:59;1.77;;;1.13;;
33930;SDS011;20215;53.130;6.408;2022-08-19T06:47:28;1.30;;;0.60;;
33930;SDS011;20215;53.130;6.408;2022-08-19T06:49:54;1.30;;;0.93;;
33930;SDS011;20215;53.130;6.408;2022-08-19T06:52:25;2.28;;;0.90;;
33930;SDS011;20215;53.130;6.408;2022-08-19T06:54:50;0.93;;;0.80;;
33930;SDS011;20215;53.130;6.408;2022-08-19T06:57:17;0.65;;;0.65;;
33930;SDS011;20215;53.130;6.408;2022-08-19T06:59:43;0.60;;;0.60;;
33930;SDS011;20215;53.130;6.408;2022-08-19T07:02:08;0.93;;;0.70;;
33930;SDS011;20215;53.130;6.408;2022-08-19T07:04:34;1.05;;;0.85;;
33930;SDS011;20215;53.130;6.408;2022-08-19T07:07:03;0.75;;;0.75;;
33930;SDS011;20215;53.130;6.408;2022-08-19T07:09:34;0.80;;;0.80;;
33930;SDS011;20215;53.130;6.408;2022-08-19T07:12:03;0.75;;;0.75;;
33930;SDS011;20215;53.130;6.408;2022-08-19T07:14:31;1.75;;;0.73;;
33930;SDS011;20215;53.130;6.408;2022-08-19T07:17:00;0.73;;;0.73;;
33930;SDS011;20215;53.130;6.408;2022-08-19T07:19:26;1.45;;;0.90;;
33930;SDS011;20215;53.130;6.408;2022-08-19T07:21:54;0.93;;;0.90;;
33930;SDS011;20215;53.130;6.408;2022-08-19T07:24:21;1.23;;;0.93;;
33930;SDS011;20215;53.130;6.408;2022-08-19T07:26:49;1.60;;;0.85;;
33930;SDS011;20215;53.130;6.408;2022-08-19T07:29:16;1.92;;;0.82;;
33930;SDS011;20215;53.130;6.408;2022-08-19T07:31:41;0.75;;;0.70;;
33930;SDS011;20215;53.130;6.408;2022-08-19T07:34:08;0.85;;;0.75;;
33930;SDS011;20215;53.130;6.408;2022-08-19T07:36:37;0.90;;;0.90;;
33930;SDS011;20215;53.130;6.408;2022-08-19T07:39:10;3.25;;;1.08;;
33930;SDS011;20215;53.130;6.408;2022-08-19T07:41:37;1.60;;;0.93;;
33930;SDS011;20215;53.130;6.408;2022-08-19T07:44:05;2.67;;;1.30;;
33930;SDS011;20215;53.130;6.408;2022-08-19T07:46:34;0.90;;;0.90;;
33930;SDS011;20215;53.130;6.408;2022-08-19T07:49:02;0.95;;;0.95;;
33930;SDS011;20215;53.130;6.408;2022-08-19T07:51:29;1.15;;;1.08;;
33930;SDS011;20215;53.130;6.408;2022-08-19T07:53:55;2.05;;;0.80;;
33930;SDS011;20215;53.130;6.408;2022-08-19T07:56:21;1.70;;;0.98;;
33930;SDS011;20215;53.130;6.408;2022-08-19T07:58:48;1.00;;;0.90;;
33930;SDS011;20215;53.130;6.408;2022-08-19T08:01:17;1.38;;;1.15;;
33930;SDS011;20215;53.130;6.408;2022-08-19T08:03:50;1.52;;;0.82;;
33930;SDS011;20215;53.130;6.408;2022-08-19T08:06:35;1.50;;;0.80;;
33930;SDS011;20215;53.130;6.408;2022-08-19T08:09:38;2.05;;;0.75;;
33930;SDS011;20215;53.130;6.408;2022-08-19T08:12:11;1.77;;;1.08;;
33930;SDS011;20215;53.130;6.408;2022-08-19T08:17:16;1.60;;;0.70;;
33930;SDS011;20215;53.130;6.408;2022-08-19T08:19:44;0.73;;;0.73;;
33930;SDS011;20215;53.130;6.408;2022-08-19T08:22:12;1.58;;;0.90;;
33930;SDS011;20215;53.130;6.408;2022-08-19T08:25:32;0.90;;;0.77;;
33930;SDS011;20215;53.130;6.408;2022-08-19T08:27:51;1.20;;;1.10;;
33930;SDS011;20215;53.130;6.408;2022-08-19T08:30:18;0.98;;;0.80;;
33930;SDS011;20215;53.130;6.408;2022-08-19T08:32:46;1.75;;;0.95;;
33930;SDS011;20215;53.130;6.408;2022-08-19T08:35:15;1.25;;;1.13;;
33930;SDS011;20215;53.130;6.408;2022-08-19T08:37:42;1.80;;;1.15;;
33930;SDS011;20215;53.130;6.408;2022-08-19T08:40:22;0.93;;;0.80;;
33930;SDS011;20215;53.130;6.408;2022-08-19T08:45:30;3.13;;;1.48;;
33930;SDS011;20215;53.130;6.408;2022-08-19T08:47:58;1.88;;;1.30;;
33930;SDS011;20215;53.130;6.408;2022-08-19T08:50:34;1.67;;;1.05;;
33930;SDS011;20215;53.130;6.408;2022-08-19T08:53:07;0.85;;;0.85;;
33930;SDS011;20215;53.130;6.408;2022-08-19T08:55:35;1.33;;;1.23;;
33930;SDS011;20215;53.130;6.408;2022-08-19T08:58:05;2.35;;;1.20;;
33930;SDS011;20215;53.130;6.408;2022-08-19T09:00:37;1.33;;;1.20;;
33930;SDS011;20215;53.130;6.408;2022-08-19T09:03:19;1.10;;;1.00;;
33930;SDS011;20215;53.130;6.408;2022-08-19T09:08:31;1.50;;;1.40;;
33930;SDS011;20215;53.130;6.408;2022-08-19T09:11:03;1.55;;;1.20;;
33930;SDS011;20215;53.130;6.408;2022-08-19T09:16:01;1.48;;;1.00;;
33930;SDS011;20215;53.130;6.408;2022-08-19T09:18:41;1.60;;;1.38;;
33930;SDS011;20215;53.130;6.408;2022-08-19T09:21:11;2.55;;;1.45;;
33930;SDS011;20215;53.130;6.408;2022-08-19T09:23:38;1.83;;;1.67;;
33930;SDS011;20215;53.130;6.408;2022-08-19T09:26:07;3.33;;;1.65;;
33930;SDS011;20215;53.130;6.408;2022-08-19T09:28:33;1.50;;;1.30;;
33930;SDS011;20215;53.130;6.408;2022-08-19T09:30:59;2.03;;;1.58;;
33930;SDS011;20215;53.130;6.408;2022-08-19T09:33:25;2.03;;;1.45;;
33930;SDS011;20215;53.130;6.408;2022-08-19T09:36:00;2.25;;;1.30;;
33930;SDS011;20215;53.130;6.408;2022-08-19T09:38:28;1.60;;;1.50;;
33930;SDS011;20215;53.130;6.408;2022-08-19T09:40:54;1.65;;;1.55;;
33930;SDS011;20215;53.130;6.408;2022-08-19T09:43:19;1.67;;;1.17;;
33930;SDS011;20215;53.130;6.408;2022-08-19T09:45:45;1.75;;;1.38;;
33930;SDS011;20215;53.130;6.408;2022-08-19T09:48:10;1.77;;;1.50;;
33930;SDS011;20215;53.130;6.408;2022-08-19T09:50:36;1.80;;;1.70;;
33930;SDS011;20215;53.130;6.408;2022-08-19T09:53:03;1.60;;;1.48;;
33930;SDS011;20215;53.130;6.408;2022-08-19T09:55:32;1.92;;;1.75;;
33930;SDS011;20215;53.130;6.408;2022-08-19T09:58:00;2.22;;;1.63;;
33930;SDS011;20215;53.130;6.408;2022-08-19T10:00:27;1.88;;;1.58;;
33930;SDS011;20215;53.130;6.408;2022-08-19T10:02:52;2.63;;;2.00;;
33930;SDS011;20215;53.130;6.408;2022-08-19T10:05:21;1.73;;;1.48;;
33930;SDS011;20215;53.130;6.408;2022-08-19T10:08:06;3.40;;;1.77;;
33930;SDS011;20215;53.130;6.408;2022-08-19T10:10:34;1.98;;;1.52;;
33930;SDS011;20215;53.130;6.408;2022-08-19T10:13:00;1.73;;;1.30;;
33930;SDS011;20215;53.130;6.408;2022-08-19T10:15:26;2.00;;;1.80;;
33930;SDS011;20215;53.130;6.408;2022-08-19T10:17:52;1.75;;;1.65;;
33930;SDS011;20215;53.130;6.408;2022-08-19T10:20:17;1.58;;;1.48;;
33930;SDS011;20215;53.130;6.408;2022-08-19T10:22:43;2.42;;;1.73;;
33930;SDS011;20215;53.130;6.408;2022-08-19T10:25:09;2.28;;;2.10;;
33930;SDS011;20215;53.130;6.408;2022-08-19T10:27:34;1.98;;;1.55;;
33930;SDS011;20215;53.130;6.408;2022-08-19T10:30:00;2.20;;;1.65;;
33930;SDS011;20215;53.130;6.408;2022-08-19T10:32:26;2.17;;;2.00;;
33930;SDS011;20215;53.130;6.408;2022-08-19T10:34:53;2.70;;;2.50;;
33930;SDS011;20215;53.130;6.408;2022-08-19T10:37:21;2.67;;;2.15;;
33930;SDS011;20215;53.130;6.408;2022-08-19T10:39:46;1.90;;;1.80;;
33930;SDS011;20215;53.130;6.408;2022-08-19T10:42:15;1.88;;;1.77;;
33930;SDS011;20215;53.130;6.408;2022-08-19T10:44:43;2.05;;;1.90;;
33930;SDS011;20215;53.130;6.408;2022-08-19T10:47:10;2.13;;;1.92;;
33930;SDS011;20215;53.130;6.408;2022-08-19T10:49:36;3.33;;;2.55;;
33930;SDS011;20215;53.130;6.408;2022-08-19T10:52:21;2.85;;;2.65;;
33930;SDS011;20215;53.130;6.408;2022-08-19T10:54:59;3.97;;;2.25;;
33930;SDS011;20215;53.130;6.408;2022-08-19T10:57:44;1.85;;;1.73;;
33930;SDS011;20215;53.130;6.408;2022-08-19T11:00:10;3.05;;;2.83;;
33930;SDS011;20215;53.130;6.408;2022-08-19T11:02:36;2.90;;;2.70;;
33930;SDS011;20215;53.130;6.408;2022-08-19T11:05:02;4.28;;;3.03;;
33930;SDS011;20215;53.130;6.408;2022-08-19T11:07:28;2.13;;;2.00;;
33930;SDS011;20215;53.130;6.408;2022-08-19T11:09:53;2.22;;;2.05;;
33930;SDS011;20215;53.130;6.408;2022-08-19T11:12:19;3.45;;;2.78;;
33930;SDS011;20215;53.130;6.408;2022-08-19T11:14:45;2.80;;;2.30;;
33930;SDS011;20215;53.130;6.408;2022-08-19T11:17:10;3.17;;;2.95;;
33930;SDS011;20215;53.130;6.408;2022-08-19T11:19:38;2.25;;;2.15;;
33930;SDS011;20215;53.130;6.408;2022-08-19T11:22:04;2.70;;;2.50;;
33930;SDS011;20215;53.130;6.408;2022-08-19T11:24:33;4.28;;;2.20;;
33930;SDS011;20215;53.130;6.408;2022-08-19T11:27:06;2.85;;;2.55;;
33930;SDS011;20215;53.130;6.408;2022-08-19T11:29:34;2.92;;;2.60;;
33930;SDS011;20215;53.130;6.408;2022-08-19T11:32:03;2.75;;;2.50;;
33930;SDS011;20215;53.130;6.408;2022-08-19T11:34:34;2.92;;;2.63;;
33930;SDS011;20215;53.130;6.408;2022-08-19T11:37:01;3.50;;;3.20;;
33930;SDS011;20215;53.130;6.408;2022-08-19T11:39:30;3.22;;;2.92;;
33930;SDS011;20215;53.130;6.408;2022-08-19T11:41:59;2.45;;;2.22;;
33930;SDS011;20215;53.130;6.408;2022-08-19T11:44:27;3.10;;;2.80;;
33930;SDS011;20215;53.130;6.408;2022-08-19T11:46:55;3.28;;;2.60;;
33930;SDS011;20215;53.130;6.408;2022-08-19T11:49:21;3.35;;;2.60;;
33930;SDS011;20215;53.130;6.408;2022-08-19T11:51:47;2.45;;;2.25;;
33930;SDS011;20215;53.130;6.408;2022-08-19T11:54:15;2.70;;;2.50;;
33930;SDS011;20215;53.130;6.408;2022-08-19T11:56:41;2.80;;;2.10;;
33930;SDS011;20215;53.130;6.408;2022-08-19T11:59:08;2.95;;;2.65;;
33930;SDS011;20215;53.130;6.408;2022-08-19T12:01:35;2.97;;;2.72;;
33930;SDS011;20215;53.130;6.408;2022-08-19T12:04:01;2.63;;;2.42;;
33930;SDS011;20215;53.130;6.408;2022-08-19T12:06:31;2.80;;;2.60;;
33930;SDS011;20215;53.130;6.408;2022-08-19T12:09:00;2.13;;;2.00;;
33930;SDS011;20215;53.130;6.408;2022-08-19T12:11:30;2.75;;;2.55;;
33930;SDS011;20215;53.130;6.408;2022-08-19T12:13:56;3.25;;;2.95;;
33930;SDS011;20215;53.130;6.408;2022-08-19T12:16:24;3.08;;;2.78;;
33930;SDS011;20215;53.130;6.408;2022-08-19T12:18:52;3.10;;;2.80;;
33930;SDS011;20215;53.130;6.408;2022-08-19T12:21:20;2.97;;;2.78;;
33930;SDS011;20215;53.130;6.408;2022-08-19T12:23:48;3.25;;;3.05;;
33930;SDS011;20215;53.130;6.408;2022-08-19T12:26:17;2.88;;;2.67;;
33930;SDS011;20215;53.130;6.408;2022-08-19T12:28:43;3.22;;;2.92;;
33930;SDS011;20215;53.130;6.408;2022-08-19T12:31:09;3.15;;;2.90;;
33930;SDS011;20215;53.130;6.408;2022-08-19T12:33:39;3.97;;;3.28;;
33930;SDS011;20215;53.130;6.408;2022-08-19T12:36:07;4.07;;;3.10;;
33930;SDS011;20215;53.130;6.408;2022-08-19T12:38:36;2.70;;;2.50;;
33930;SDS011;20215;53.130;6.408;2022-08-19T12:41:02;3.10;;;2.83;;
33930;SDS011;20215;53.130;6.408;2022-08-19T12:43:31;3.33;;;3.03;;
33930;SDS011;20215;53.130;6.408;2022-08-19T12:45:57;5.85;;;3.20;;
33930;SDS011;20215;53.130;6.408;2022-08-19T12:48:22;2.92;;;2.70;;
33930;SDS011;20215;53.130;6.408;2022-08-19T12:50:48;2.60;;;2.40;;
33930;SDS011;20215;53.130;6.408;2022-08-19T12:53:14;4.38;;;3.30;;
33930;SDS011;20215;53.130;6.408;2022-08-19T12:55:40;2.80;;;2.42;;
33930;SDS011;20215;53.130;6.408;2022-08-19T12:58:07;5.03;;;3.13;;
33930;SDS011;20215;53.130;6.408;2022-08-19T13:00:33;4.38;;;3.42;;
33930;SDS011;20215;53.130;6.408;2022-08-19T13:02:59;5.97;;;3.72;;
33930;SDS011;20215;53.130;6.408;2022-08-19T13:05:27;4.90;;;3.83;;
33930;SDS011;20215;53.130;6.408;2022-08-19T13:07:54;4.35;;;3.95;;
33930;SDS011;20215;53.130;6.408;2022-08-19T13:10:22;3.97;;;3.42;;
33930;SDS011;20215;53.130;6.408;2022-08-19T13:12:50;7.10;;;3.53;;
33930;SDS011;20215;53.130;6.408;2022-08-19T13:15:17;7.18;;;2.88;;
33930;SDS011;20215;53.130;6.408;2022-08-19T13:17:45;3.53;;;2.85;;
33930;SDS011;20215;53.130;6.408;2022-08-19T13:20:16;4.22;;;3.42;;
33930;SDS011;20215;53.130;6.408;2022-08-19T13:22:44;9.27;;;5.30;;
33930;SDS011;20215;53.130;6.408;2022-08-19T13:25:10;12.38;;;5.55;;
33930;SDS011;20215;53.130;6.408;2022-08-19T13:27:37;14.32;;;5.38;;
33930;SDS011;20215;53.130;6.408;2022-08-19T13:30:03;8.50;;;4.38;;
33930;SDS011;20215;53.130;6.408;2022-08-19T13:32:49;11.88;;;4.75;;
33930;SDS011;20215;53.130;6.408;2022-08-19T13:35:33;13.60;;;5.72;;
33930;SDS011;20215;53.130;6.408;2022-08-19T13:37:59;17.52;;;6.38;;
33930;SDS011;20215;53.130;6.408;2022-08-19T13:40:29;9.93;;;6.07;;
33930;SDS011;20215;53.130;6.408;2022-08-19T13:42:59;12.70;;;6.07;;
33930;SDS011;20215;53.130;6.408;2022-08-19T13:45:26;13.50;;;6.05;;
33930;SDS011;20215;53.130;6.408;2022-08-19T13:47:54;11.07;;;4.68;;
33930;SDS011;20215;53.130;6.408;2022-08-19T13:50:22;9.27;;;5.13;;
33930;SDS011;20215;53.130;6.408;2022-08-19T13:52:50;6.78;;;4.85;;
33930;SDS011;20215;53.130;6.408;2022-08-19T13:55:16;10.73;;;4.40;;
33930;SDS011;20215;53.130;6.408;2022-08-19T13:57:42;10.50;;;5.43;;
33930;SDS011;20215;53.130;6.408;2022-08-19T14:00:14;10.80;;;4.53;;
33930;SDS011;20215;53.130;6.408;2022-08-19T14:02:43;10.48;;;5.43;;
33930;SDS011;20215;53.130;6.408;2022-08-19T14:05:11;5.72;;;4.50;;
33930;SDS011;20215;53.130;6.408;2022-08-19T14:07:38;5.32;;;3.90;;
33930;SDS011;20215;53.130;6.408;2022-08-19T14:10:05;5.30;;;4.05;;
33930;SDS011;20215;53.130;6.408;2022-08-19T14:12:32;7.25;;;4.22;;
33930;SDS011;20215;53.130;6.408;2022-08-19T14:14:58;5.15;;;3.85;;
33930;SDS011;20215;53.130;6.408;2022-08-19T14:17:24;4.60;;;3.88;;
33930;SDS011;20215;53.130;6.408;2022-08-19T14:19:55;4.65;;;3.33;;
33930;SDS011;20215;53.130;6.408;2022-08-19T14:22:32;6.82;;;4.40;;
33930;SDS011;20215;53.130;6.408;2022-08-19T14:24:58;4.13;;;3.72;;
33930;SDS011;20215;53.130;6.408;2022-08-19T14:27:23;5.65;;;4.10;;
33930;SDS011;20215;53.130;6.408;2022-08-19T14:29:50;8.45;;;4.38;;
33930;SDS011;20215;53.130;6.408;2022-08-19T14:32:17;4.45;;;4.00;;
33930;SDS011;20215;53.130;6.408;2022-08-19T14:34:42;5.43;;;3.58;;
33930;SDS011;20215;53.130;6.408;2022-08-19T14:37:11;7.03;;;4.28;;
33930;SDS011;20215;53.130;6.408;2022-08-19T14:39:39;7.03;;;4.03;;
33930;SDS011;20215;53.130;6.408;2022-08-19T14:42:09;5.63;;;3.83;;
33930;SDS011;20215;53.130;6.408;2022-08-19T14:44:36;6.97;;;3.88;;
33930;SDS011;20215;53.130;6.408;2022-08-19T14:47:02;5.53;;;4.05;;
33930;SDS011;20215;53.130;6.408;2022-08-19T14:49:29;6.03;;;3.97;;
33930;SDS011;20215;53.130;6.408;2022-08-19T14:51:54;4.03;;;3.63;;
33930;SDS011;20215;53.130;6.408;2022-08-19T14:54:21;5.07;;;3.95;;
33930;SDS011;20215;53.130;6.408;2022-08-19T14:56:47;7.15;;;3.92;;
33930;SDS011;20215;53.130;6.408;2022-08-19T14:59:13;4.75;;;3.92;;
33930;SDS011;20215;53.130;6.408;2022-08-19T15:01:39;6.45;;;3.83;;
33930;SDS011;20215;53.130;6.408;2022-08-19T15:04:04;7.13;;;3.90;;
33930;SDS011;20215;53.130;6.408;2022-08-19T15:06:30;4.47;;;4.03;;
33930;SDS011;20215;53.130;6.408;2022-08-19T15:08:56;6.38;;;3.50;;